sensor_id;sensor_type;location;lat;lon;timestamp;temperature;humidity
19538;DHT22;9914;51.008;4.300;2023-08-06T00:00:10;17.50;99.90
19538;DHT22;9914;51.008;4.300;2023-08-06T00:02:36;17.50;99.90
19538;DHT22;9914;51.008;4.300;2023-08-06T00:05:01;17.40;99.90
19538;DHT22;9914;51.008;4.300;2023-08-06T00:07:28;17.50;99.90
19538;DHT22;9914;51.008;4.300;2023-08-06T00:09:53;17.50;99.90
19538;DHT22;9914;51.008;4.300;2023-08-06T00:12:19;17.50;99.90
19538;DHT22;9914;51.008;4.300;2023-08-06T00:14:45;17.50;99.90
19538;DHT22;9914;51.008;4.300;2023-08-06T00:17:11;17.60;99.90
19538;DHT22;9914;51.008;4.300;2023-08-06T00:19:36;17.70;99.90
19538;DHT22;9914;51.008;4.300;2023-08-06T00:22:02;17.60;99.90
19538;DHT22;9914;51.008;4.300;2023-08-06T00:24:28;17.60;99.90
19538;DHT22;9914;51.008;4.300;2023-08-06T00:26:53;17.60;99.90
19538;DHT22;9914;51.008;4.300;2023-08-06T00:29:19;17.70;99.90
19538;DHT22;9914;51.008;4.300;2023-08-06T00:31:45;17.70;99.90
19538;DHT22;9914;51.008;4.300;2023-08-06T00:34:10;17.70;99.90
19538;DHT22;9914;51.008;4.300;2023-08-06T00:36:36;17.70;99.90
19538;DHT22;9914;51.008;4.300;2023-08-06T00:39:02;17.50;99.90
19538;DHT22;9914;51.008;4.300;2023-08-06T00:41:28;17.60;99.90
19538;DHT22;9914;51.008;4.300;2023-08-06T00:43:53;17.60;99.90
19538;DHT22;9914;51.008;4.300;2023-08-06T00:46:20;17.60;99.90
19538;DHT22;9914;51.008;4.300;2023-08-06T00:48:46;17.60;99.90
19538;DHT22;9914;51.008;4.300;2023-08-06T00:51:11;17.50;99.90
19538;DHT22;9914;51.008;4.300;2023-08-06T00:53:38;17.50;99.90
19538;DHT22;9914;51.008;4.300;2023-08-06T00:56:05;17.60;99.90
19538;DHT22;9914;51.008;4.300;2023-08-06T00:58:31;17.80;99.90
19538;DHT22;9914;51.008;4.300;2023-08-06T01:00:57;17.80;99.90
19538;DHT22;9914;51.008;4.300;2023-08-06T01:03:23;17.80;99.90
19538;DHT22;9914;51.008;4.300;2023-08-06T01:05:48;17.80;99.90
19538;DHT22;9914;51.008;4.300;2023-08-06T01:11:26;17.90;99.90
19538;DHT22;9914;51.008;4.300;2023-08-06T01:16:42;17.70;99.90
19538;DHT22;9914;51.008;4.300;2023-08-06T01:19:17;17.50;99.90
19538;DHT22;9914;51.008;4.300;2023-08-06T01:21:43;17.60;99.90
19538;DHT22;9914;51.008;4.300;2023-08-06T01:24:09;17.60;99.90
19538;DHT22;9914;51.008;4.300;2023-08-06T01:29:35;17.70;99.90
19538;DHT22;9914;51.008;4.300;2023-08-06T01:32:03;17.60;99.90
19538;DHT22;9914;51.008;4.300;2023-08-06T01:34:32;17.60;99.90
19538;DHT22;9914;51.008;4.300;2023-08-06T01:36:59;17.60;99.90
19538;DHT22;9914;51.008;4.300;2023-08-06T01:39:26;17.70;99.90
19538;DHT22;9914;51.008;4.300;2023-08-06T01:41:52;17.70;99.90
19538;DHT22;9914;51.008;4.300;2023-08-06T01:44:18;17.70;99.90
19538;DHT22;9914;51.008;4.300;2023-08-06T01:46:43;17.60;99.90
19538;DHT22;9914;51.008;4.300;2023-08-06T01:49:09;17.60;99.90
19538;DHT22;9914;51.008;4.300;2023-08-06T01:51:35;17.60;99.90
19538;DHT22;9914;51.008;4.300;2023-08-06T01:54:00;17.80;99.90
19538;DHT22;9914;51.008;4.300;2023-08-06T01:56:26;17.70;99.90
19538;DHT22;9914;51.008;4.300;2023-08-06T01:58:52;17.70;99.90
19538;DHT22;9914;51.008;4.300;2023-08-06T02:01:17;17.80;99.90
19538;DHT22;9914;51.008;4.300;2023-08-06T02:03:43;17.90;99.90
19538;DHT22;9914;51.008;4.300;2023-08-06T02:06:09;18.00;99.90
19538;DHT22;9914;51.008;4.300;2023-08-06T02:08:34;18.00;99.90
19538;DHT22;9914;51.008;4.300;2023-08-06T02:11:00;17.80;99.90
19538;DHT22;9914;51.008;4.300;2023-08-06T02:13:27;17.90;99.90
19538;DHT22;9914;51.008;4.300;2023-08-06T02:15:52;17.70;99.90
19538;DHT22;9914;51.008;4.300;2023-08-06T02:18:18;17.70;99.90
19538;DHT22;9914;51.008;4.300;2023-08-06T02:20:44;17.70;99.90
19538;DHT22;9914;51.008;4.300;2023-08-06T02:23:19;17.80;99.90
19538;DHT22;9914;51.008;4.300;2023-08-06T02:25:45;17.70;99.90
19538;DHT22;9914;51.008;4.300;2023-08-06T02:28:11;17.80;99.90
19538;DHT22;9914;51.008;4.300;2023-08-06T02:30:36;17.70;99.90
19538;DHT22;9914;51.008;4.300;2023-08-06T02:33:02;17.80;99.90
19538;DHT22;9914;51.008;4.300;2023-08-06T02:35:27;17.90;99.90
19538;DHT22;9914;51.008;4.300;2023-08-06T02:37:53;17.90;99.90
19538;DHT22;9914;51.008;4.300;2023-08-06T02:40:19;17.90;99.90
19538;DHT22;9914;51.008;4.300;2023-08-06T02:42:44;17.90;99.90
19538;DHT22;9914;51.008;4.300;2023-08-06T02:45:10;17.90;99.90
19538;DHT22;9914;51.008;4.300;2023-08-06T02:47:36;17.90;99.90
19538;DHT22;9914;51.008;4.300;2023-08-06T02:50:01;17.80;99.90
19538;DHT22;9914;51.008;4.300;2023-08-06T02:52:27;17.70;99.90
19538;DHT22;9914;51.008;4.300;2023-08-06T02:54:52;17.50;99.90
19538;DHT22;9914;51.008;4.300;2023-08-06T02:57:18;16.90;99.90
19538;DHT22;9914;51.008;4.300;2023-08-06T02:59:44;17.00;99.90
19538;DHT22;9914;51.008;4.300;2023-08-06T03:02:09;17.10;99.90
19538;DHT22;9914;51.008;4.300;2023-08-06T03:04:35;17.20;99.90
19538;DHT22;9914;51.008;4.300;2023-08-06T03:07:00;17.20;99.90
19538;DHT22;9914;51.008;4.300;2023-08-06T03:09:26;17.20;99.90
19538;DHT22;9914;51.008;4.300;2023-08-06T03:11:51;17.20;99.90
19538;DHT22;9914;51.008;4.300;2023-08-06T03:14:17;17.30;99.90
19538;DHT22;9914;51.008;4.300;2023-08-06T03:16:43;17.30;99.90
19538;DHT22;9914;51.008;4.300;2023-08-06T03:19:08;17.30;99.90
19538;DHT22;9914;51.008;4.300;2023-08-06T03:21:34;17.20;99.90
19538;DHT22;9914;51.008;4.300;2023-08-06T03:23:59;17.10;99.90
19538;DHT22;9914;51.008;4.300;2023-08-06T03:26:25;17.10;99.90
19538;DHT22;9914;51.008;4.300;2023-08-06T03:28:51;17.10;99.90
19538;DHT22;9914;51.008;4.300;2023-08-06T03:31:16;17.10;99.90
19538;DHT22;9914;51.008;4.300;2023-08-06T03:33:42;16.90;99.90
19538;DHT22;9914;51.008;4.300;2023-08-06T03:36:08;16.90;99.90
19538;DHT22;9914;51.008;4.300;2023-08-06T03:38:33;16.90;99.90
19538;DHT22;9914;51.008;4.300;2023-08-06T03:40:59;17.00;99.90
19538;DHT22;9914;51.008;4.300;2023-08-06T03:43:24;17.00;99.90
19538;DHT22;9914;51.008;4.300;2023-08-06T03:45:50;17.00;99.90
19538;DHT22;9914;51.008;4.300;2023-08-06T03:48:16;17.00;99.90
19538;DHT22;9914;51.008;4.300;2023-08-06T03:50:41;16.70;99.90
19538;DHT22;9914;51.008;4.300;2023-08-06T03:53:07;16.30;99.90
19538;DHT22;9914;51.008;4.300;2023-08-06T03:55:33;16.00;99.90
19538;DHT22;9914;51.008;4.300;2023-08-06T03:57:58;15.70;99.90
19538;DHT22;9914;51.008;4.300;2023-08-06T04:00:24;15.70;99.90
19538;DHT22;9914;51.008;4.300;2023-08-06T04:02:49;15.70;99.90
19538;DHT22;9914;51.008;4.300;2023-08-06T04:05:16;15.50;99.90
19538;DHT22;9914;51.008;4.300;2023-08-06T04:07:42;15.40;99.90
19538;DHT22;9914;51.008;4.300;2023-08-06T04:10:08;15.30;99.90
19538;DHT22;9914;51.008;4.300;2023-08-06T04:12:34;15.20;99.90
19538;DHT22;9914;51.008;4.300;2023-08-06T04:15:02;15.10;99.90
19538;DHT22;9914;51.008;4.300;2023-08-06T04:17:29;15.00;99.90
19538;DHT22;9914;51.008;4.300;2023-08-06T04:19:55;14.80;99.90
19538;DHT22;9914;51.008;4.300;2023-08-06T04:22:23;14.80;99.90
19538;DHT22;9914;51.008;4.300;2023-08-06T04:24:49;14.70;99.90
19538;DHT22;9914;51.008;4.300;2023-08-06T04:27:15;14.80;99.90
19538;DHT22;9914;51.008;4.300;2023-08-06T04:29:41;14.50;99.90
19538;DHT22;9914;51.008;4.300;2023-08-06T04:32:08;14.40;99.90
19538;DHT22;9914;51.008;4.300;2023-08-06T04:34:35;14.20;99.90
19538;DHT22;9914;51.008;4.300;2023-08-06T04:37:02;14.10;99.90
19538;DHT22;9914;51.008;4.300;2023-08-06T04:39:28;14.10;99.90
19538;DHT22;9914;51.008;4.300;2023-08-06T04:41:54;14.00;99.90
19538;DHT22;9914;51.008;4.300;2023-08-06T04:44:20;14.00;99.90
19538;DHT22;9914;51.008;4.300;2023-08-06T04:46:46;14.00;99.90
19538;DHT22;9914;51.008;4.300;2023-08-06T04:49:12;14.10;99.90
19538;DHT22;9914;51.008;4.300;2023-08-06T04:51:37;14.10;99.90
19538;DHT22;9914;51.008;4.300;2023-08-06T04:54:04;14.20;99.90
19538;DHT22;9914;51.008;4.300;2023-08-06T04:56:29;14.10;99.90
19538;DHT22;9914;51.008;4.300;2023-08-06T04:58:55;14.20;99.90
19538;DHT22;9914;51.008;4.300;2023-08-06T05:01:20;14.30;99.90
19538;DHT22;9914;51.008;4.300;2023-08-06T05:03:47;14.30;99.90
19538;DHT22;9914;51.008;4.300;2023-08-06T05:06:13;14.30;99.90
19538;DHT22;9914;51.008;4.300;2023-08-06T05:08:38;14.40;99.90
19538;DHT22;9914;51.008;4.300;2023-08-06T05:11:04;14.60;99.90
19538;DHT22;9914;51.008;4.300;2023-08-06T05:13:30;14.70;99.90
19538;DHT22;9914;51.008;4.300;2023-08-06T05:15:55;14.80;99.90
19538;DHT22;9914;51.008;4.300;2023-08-06T05:18:21;14.80;99.90
19538;DHT22;9914;51.008;4.300;2023-08-06T05:20:47;14.60;99.90
19538;DHT22;9914;51.008;4.300;2023-08-06T05:23:13;14.70;99.90
19538;DHT22;9914;51.008;4.300;2023-08-06T05:25:39;14.70;99.90
19538;DHT22;9914;51.008;4.300;2023-08-06T05:28:05;14.80;99.90
19538;DHT22;9914;51.008;4.300;2023-08-06T05:30:31;14.70;99.90
19538;DHT22;9914;51.008;4.300;2023-08-06T05:32:57;14.90;99.90
19538;DHT22;9914;51.008;4.300;2023-08-06T05:35:22;14.70;99.90
19538;DHT22;9914;51.008;4.300;2023-08-06T05:37:50;14.80;99.90
19538;DHT22;9914;51.008;4.300;2023-08-06T05:40:15;15.00;99.90
19538;DHT22;9914;51.008;4.300;2023-08-06T05:42:41;15.10;99.90
19538;DHT22;9914;51.008;4.300;2023-08-06T05:45:07;15.10;99.90
19538;DHT22;9914;51.008;4.300;2023-08-06T05:47:33;15.10;99.90
19538;DHT22;9914;51.008;4.300;2023-08-06T05:49:59;15.10;99.90
19538;DHT22;9914;51.008;4.300;2023-08-06T05:52:24;15.20;99.90
19538;DHT22;9914;51.008;4.300;2023-08-06T05:54:50;15.20;99.90
19538;DHT22;9914;51.008;4.300;2023-08-06T05:57:16;15.20;99.90
19538;DHT22;9914;51.008;4.300;2023-08-06T05:59:42;15.10;99.90
19538;DHT22;9914;51.008;4.300;2023-08-06T06:02:08;15.00;99.90
19538;DHT22;9914;51.008;4.300;2023-08-06T06:04:34;15.00;99.90
19538;DHT22;9914;51.008;4.300;2023-08-06T06:06:59;15.00;99.90
19538;DHT22;9914;51.008;4.300;2023-08-06T06:09:25;15.20;99.90
19538;DHT22;9914;51.008;4.300;2023-08-06T06:11:51;15.20;99.90
19538;DHT22;9914;51.008;4.300;2023-08-06T06:14:17;15.20;99.90
19538;DHT22;9914;51.008;4.300;2023-08-06T06:16:43;15.30;99.90
19538;DHT22;9914;51.008;4.300;2023-08-06T06:19:09;15.30;99.90
19538;DHT22;9914;51.008;4.300;2023-08-06T06:21:34;15.30;99.90
19538;DHT22;9914;51.008;4.300;2023-08-06T06:24:00;15.20;99.90
19538;DHT22;9914;51.008;4.300;2023-08-06T06:26:26;15.30;99.90
19538;DHT22;9914;51.008;4.300;2023-08-06T06:28:51;15.40;99.90
19538;DHT22;9914;51.008;4.300;2023-08-06T06:31:17;15.50;99.90
19538;DHT22;9914;51.008;4.300;2023-08-06T06:33:42;15.60;99.90
19538;DHT22;9914;51.008;4.300;2023-08-06T06:36:08;15.60;99.90
19538;DHT22;9914;51.008;4.300;2023-08-06T06:38:35;15.70;99.90
19538;DHT22;9914;51.008;4.300;2023-08-06T06:41:01;15.80;99.90
19538;DHT22;9914;51.008;4.300;2023-08-06T06:43:28;15.80;99.90
19538;DHT22;9914;51.008;4.300;2023-08-06T06:45:56;15.70;99.90
19538;DHT22;9914;51.008;4.300;2023-08-06T06:48:30;15.80;99.90
19538;DHT22;9914;51.008;4.300;2023-08-06T06:50:56;15.70;99.90
19538;DHT22;9914;51.008;4.300;2023-08-06T06:53:22;15.70;99.90
19538;DHT22;9914;51.008;4.300;2023-08-06T06:55:56;15.60;99.90
19538;DHT22;9914;51.008;4.300;2023-08-06T06:58:22;15.40;99.90
19538;DHT22;9914;51.008;4.300;2023-08-06T07:00:48;15.30;99.90
19538;DHT22;9914;51.008;4.300;2023-08-06T07:03:17;15.40;99.90
19538;DHT22;9914;51.008;4.300;2023-08-06T07:05:44;15.50;99.90
19538;DHT22;9914;51.008;4.300;2023-08-06T07:08:10;15.50;99.90
19538;DHT22;9914;51.008;4.300;2023-08-06T07:10:35;15.70;99.90
19538;DHT22;9914;51.008;4.300;2023-08-06T07:13:01;15.60;99.90
19538;DHT22;9914;51.008;4.300;2023-08-06T07:15:26;15.80;99.90
19538;DHT22;9914;51.008;4.300;2023-08-06T07:17:52;15.70;99.90
19538;DHT22;9914;51.008;4.300;2023-08-06T07:20:18;15.70;99.90
19538;DHT22;9914;51.008;4.300;2023-08-06T07:22:44;15.50;99.90
19538;DHT22;9914;51.008;4.300;2023-08-06T07:25:10;15.30;99.90
19538;DHT22;9914;51.008;4.300;2023-08-06T07:27:36;15.30;99.90
19538;DHT22;9914;51.008;4.300;2023-08-06T07:30:01;15.30;99.90
19538;DHT22;9914;51.008;4.300;2023-08-06T07:32:27;15.30;99.90
19538;DHT22;9914;51.008;4.300;2023-08-06T07:34:53;15.40;99.90
19538;DHT22;9914;51.008;4.300;2023-08-06T07:37:22;15.60;99.90
19538;DHT22;9914;51.008;4.300;2023-08-06T07:39:48;15.70;99.90
19538;DHT22;9914;51.008;4.300;2023-08-06T07:42:14;15.70;99.90
19538;DHT22;9914;51.008;4.300;2023-08-06T07:44:40;15.70;99.90
19538;DHT22;9914;51.008;4.300;2023-08-06T07:47:05;15.70;99.90
19538;DHT22;9914;51.008;4.300;2023-08-06T07:49:31;15.90;99.90
19538;DHT22;9914;51.008;4.300;2023-08-06T07:51:57;16.10;99.90
19538;DHT22;9914;51.008;4.300;2023-08-06T07:54:22;16.30;99.90
19538;DHT22;9914;51.008;4.300;2023-08-06T07:56:50;16.20;99.90
19538;DHT22;9914;51.008;4.300;2023-08-06T07:59:15;16.40;99.90
19538;DHT22;9914;51.008;4.300;2023-08-06T08:01:41;16.50;99.90
19538;DHT22;9914;51.008;4.300;2023-08-06T08:04:06;16.70;99.90
19538;DHT22;9914;51.008;4.300;2023-08-06T08:06:33;16.80;99.90
19538;DHT22;9914;51.008;4.300;2023-08-06T08:08:59;16.80;99.90
19538;DHT22;9914;51.008;4.300;2023-08-06T08:11:25;16.40;99.90
19538;DHT22;9914;51.008;4.300;2023-08-06T08:13:51;16.10;99.90
19538;DHT22;9914;51.008;4.300;2023-08-06T08:16:17;15.70;99.90
19538;DHT22;9914;51.008;4.300;2023-08-06T08:18:42;15.70;99.90
19538;DHT22;9914;51.008;4.300;2023-08-06T08:21:08;15.90;99.90
19538;DHT22;9914;51.008;4.300;2023-08-06T08:23:34;16.10;99.90
19538;DHT22;9914;51.008;4.300;2023-08-06T08:25:59;16.40;99.90
19538;DHT22;9914;51.008;4.300;2023-08-06T08:28:27;16.70;99.90
19538;DHT22;9914;51.008;4.300;2023-08-06T08:30:53;16.80;99.90
19538;DHT22;9914;51.008;4.300;2023-08-06T08:33:18;16.80;99.90
19538;DHT22;9914;51.008;4.300;2023-08-06T08:35:46;17.00;99.90
19538;DHT22;9914;51.008;4.300;2023-08-06T08:38:12;17.00;99.90
19538;DHT22;9914;51.008;4.300;2023-08-06T08:40:43;17.00;99.90
19538;DHT22;9914;51.008;4.300;2023-08-06T08:43:09;17.00;99.90
19538;DHT22;9914;51.008;4.300;2023-08-06T08:45:39;17.20;99.90
19538;DHT22;9914;51.008;4.300;2023-08-06T08:48:05;17.20;99.90
19538;DHT22;9914;51.008;4.300;2023-08-06T08:50:31;17.10;99.90
19538;DHT22;9914;51.008;4.300;2023-08-06T08:52:57;17.00;99.90
19538;DHT22;9914;51.008;4.300;2023-08-06T08:55:23;16.90;99.90
19538;DHT22;9914;51.008;4.300;2023-08-06T08:57:49;16.80;99.90
19538;DHT22;9914;51.008;4.300;2023-08-06T09:00:15;16.50;99.90
19538;DHT22;9914;51.008;4.300;2023-08-06T09:02:42;16.20;99.90
19538;DHT22;9914;51.008;4.300;2023-08-06T09:05:09;16.00;99.90
19538;DHT22;9914;51.008;4.300;2023-08-06T09:07:41;15.80;99.90
19538;DHT22;9914;51.008;4.300;2023-08-06T09:10:11;15.90;99.90
19538;DHT22;9914;51.008;4.300;2023-08-06T09:12:39;16.00;99.90
19538;DHT22;9914;51.008;4.300;2023-08-06T09:15:05;15.90;99.90
19538;DHT22;9914;51.008;4.300;2023-08-06T09:17:31;15.90;99.90
19538;DHT22;9914;51.008;4.300;2023-08-06T09:19:56;15.90;99.90
19538;DHT22;9914;51.008;4.300;2023-08-06T09:22:23;15.70;99.90
19538;DHT22;9914;51.008;4.300;2023-08-06T09:24:49;15.70;99.90
19538;DHT22;9914;51.008;4.300;2023-08-06T09:27:16;15.80;99.90
19538;DHT22;9914;51.008;4.300;2023-08-06T09:29:43;15.70;99.90
19538;DHT22;9914;51.008;4.300;2023-08-06T09:32:11;15.70;99.90
19538;DHT22;9914;51.008;4.300;2023-08-06T09:34:39;15.70;99.90
19538;DHT22;9914;51.008;4.300;2023-08-06T09:37:06;15.70;99.90
19538;DHT22;9914;51.008;4.300;2023-08-06T09:39:33;15.70;99.90
19538;DHT22;9914;51.008;4.300;2023-08-06T09:42:01;15.70;99.90
19538;DHT22;9914;51.008;4.300;2023-08-06T09:44:29;15.70;99.90
19538;DHT22;9914;51.008;4.300;2023-08-06T09:46:56;15.70;99.90
19538;DHT22;9914;51.008;4.300;2023-08-06T09:49:26;15.70;99.90
19538;DHT22;9914;51.008;4.300;2023-08-06T09:51:52;15.70;99.90
19538;DHT22;9914;51.008;4.300;2023-08-06T09:54:22;15.70;99.90
19538;DHT22;9914;51.008;4.300;2023-08-06T09:56:48;15.70;99.90
19538;DHT22;9914;51.008;4.300;2023-08-06T09:59:14;15.60;99.90
19538;DHT22;9914;51.008;4.300;2023-08-06T10:01:41;15.70;99.90
19538;DHT22;9914;51.008;4.300;2023-08-06T10:04:07;15.70;99.90
19538;DHT22;9914;51.008;4.300;2023-08-06T10:06:37;15.60;99.90
19538;DHT22;9914;51.008;4.300;2023-08-06T10:09:05;15.60;99.90
19538;DHT22;9914;51.008;4.300;2023-08-06T10:11:31;15.70;99.90
19538;DHT22;9914;51.008;4.300;2023-08-06T10:14:12;15.80;99.90
19538;DHT22;9914;51.008;4.300;2023-08-06T10:16:40;15.90;99.90
19538;DHT22;9914;51.008;4.300;2023-08-06T10:19:09;16.00;99.90
19538;DHT22;9914;51.008;4.300;2023-08-06T10:21:35;16.00;99.90
19538;DHT22;9914;51.008;4.300;2023-08-06T10:24:00;16.00;99.90
19538;DHT22;9914;51.008;4.300;2023-08-06T10:26:30;16.20;99.90
19538;DHT22;9914;51.008;4.300;2023-08-06T10:28:56;16.00;99.90
19538;DHT22;9914;51.008;4.300;2023-08-06T10:32:00;16.00;99.90
19538;DHT22;9914;51.008;4.300;2023-08-06T10:34:56;16.10;99.90
19538;DHT22;9914;51.008;4.300;2023-08-06T10:37:23;16.10;99.90
19538;DHT22;9914;51.008;4.300;2023-08-06T10:39:52;16.10;99.90
19538;DHT22;9914;51.008;4.300;2023-08-06T10:42:28;16.10;99.90
19538;DHT22;9914;51.008;4.300;2023-08-06T10:45:19;16.20;99.90
19538;DHT22;9914;51.008;4.300;2023-08-06T10:47:46;16.30;99.90
19538;DHT22;9914;51.008;4.300;2023-08-06T10:50:17;16.30;99.90
19538;DHT22;9914;51.008;4.300;2023-08-06T10:52:47;16.40;99.90
19538;DHT22;9914;51.008;4.300;2023-08-06T10:55:14;16.30;99.90
19538;DHT22;9914;51.008;4.300;2023-08-06T10:57:40;16.20;99.90
19538;DHT22;9914;51.008;4.300;2023-08-06T11:00:07;16.20;99.90
19538;DHT22;9914;51.008;4.300;2023-08-06T11:02:34;16.20;99.90
19538;DHT22;9914;51.008;4.300;2023-08-06T11:05:07;16.10;99.90
19538;DHT22;9914;51.008;4.300;2023-08-06T11:07:34;16.10;99.90
19538;DHT22;9914;51.008;4.300;2023-08-06T11:10:07;16.10;99.90
19538;DHT22;9914;51.008;4.300;2023-08-06T11:12:34;16.30;99.90
19538;DHT22;9914;51.008;4.300;2023-08-06T11:15:00;16.20;99.90
19538;DHT22;9914;51.008;4.300;2023-08-06T11:17:28;16.20;99.90
19538;DHT22;9914;51.008;4.300;2023-08-06T11:19:54;16.40;99.90
19538;DHT22;9914;51.008;4.300;2023-08-06T11:22:23;16.60;99.90
19538;DHT22;9914;51.008;4.300;2023-08-06T11:24:49;16.40;99.90
19538;DHT22;9914;51.008;4.300;2023-08-06T11:27:16;16.20;99.90
19538;DHT22;9914;51.008;4.300;2023-08-06T11:29:42;16.00;99.90
19538;DHT22;9914;51.008;4.300;2023-08-06T11:32:09;15.90;99.90
19538;DHT22;9914;51.008;4.300;2023-08-06T11:34:35;15.70;99.90
19538;DHT22;9914;51.008;4.300;2023-08-06T11:37:03;15.90;99.90
19538;DHT22;9914;51.008;4.300;2023-08-06T11:39:32;15.90;99.90
19538;DHT22;9914;51.008;4.300;2023-08-06T11:41:59;15.90;99.90
19538;DHT22;9914;51.008;4.300;2023-08-06T11:44:30;16.10;99.90
19538;DHT22;9914;51.008;4.300;2023-08-06T11:46:56;16.30;99.90
19538;DHT22;9914;51.008;4.300;2023-08-06T11:52:32;16.40;99.90
19538;DHT22;9914;51.008;4.300;2023-08-06T11:55:08;16.60;99.90
19538;DHT22;9914;51.008;4.300;2023-08-06T11:57:38;16.70;99.90
19538;DHT22;9914;51.008;4.300;2023-08-06T12:02:36;16.70;99.90
19538;DHT22;9914;51.008;4.300;2023-08-06T12:05:16;16.80;99.90
19538;DHT22;9914;51.008;4.300;2023-08-06T12:07:47;16.80;99.90
19538;DHT22;9914;51.008;4.300;2023-08-06T12:10:13;16.70;99.90
19538;DHT22;9914;51.008;4.300;2023-08-06T12:12:40;16.60;99.90
19538;DHT22;9914;51.008;4.300;2023-08-06T12:15:06;16.50;99.90
19538;DHT22;9914;51.008;4.300;2023-08-06T12:17:33;16.40;99.90
19538;DHT22;9914;51.008;4.300;2023-08-06T12:19:59;16.30;99.90
19538;DHT22;9914;51.008;4.300;2023-08-06T12:22:24;16.10;99.90
19538;DHT22;9914;51.008;4.300;2023-08-06T12:24:50;16.10;99.90
19538;DHT22;9914;51.008;4.300;2023-08-06T12:27:16;16.10;99.90
19538;DHT22;9914;51.008;4.300;2023-08-06T12:29:43;16.10;99.90
19538;DHT22;9914;51.008;4.300;2023-08-06T12:32:10;16.00;99.90
19538;DHT22;9914;51.008;4.300;2023-08-06T12:34:37;16.10;99.90
19538;DHT22;9914;51.008;4.300;2023-08-06T12:37:03;16.20;99.90
19538;DHT22;9914;51.008;4.300;2023-08-06T12:39:29;16.10;99.90
19538;DHT22;9914;51.008;4.300;2023-08-06T12:41:55;16.00;99.90
19538;DHT22;9914;51.008;4.300;2023-08-06T12:44:23;15.90;99.90
19538;DHT22;9914;51.008;4.300;2023-08-06T12:46:50;15.80;99.90
19538;DHT22;9914;51.008;4.300;2023-08-06T12:49:16;15.70;99.90
19538;DHT22;9914;51.008;4.300;2023-08-06T12:51:42;15.50;99.90
19538;DHT22;9914;51.008;4.300;2023-08-06T12:54:08;15.20;99.90
19538;DHT22;9914;51.008;4.300;2023-08-06T12:56:34;15.30;99.90
19538;DHT22;9914;51.008;4.300;2023-08-06T12:59:00;15.00;99.90
19538;DHT22;9914;51.008;4.300;2023-08-06T13:01:25;15.10;99.90
19538;DHT22;9914;51.008;4.300;2023-08-06T13:03:51;15.00;99.90
19538;DHT22;9914;51.008;4.300;2023-08-06T13:06:17;15.10;99.90
19538;DHT22;9914;51.008;4.300;2023-08-06T13:08:42;15.20;99.90
19538;DHT22;9914;51.008;4.300;2023-08-06T13:11:08;15.30;99.90
19538;DHT22;9914;51.008;4.300;2023-08-06T13:13:34;15.40;99.90
19538;DHT22;9914;51.008;4.300;2023-08-06T13:16:00;15.40;99.90
19538;DHT22;9914;51.008;4.300;2023-08-06T13:18:25;15.40;99.90
19538;DHT22;9914;51.008;4.300;2023-08-06T13:20:55;15.40;99.90
19538;DHT22;9914;51.008;4.300;2023-08-06T13:23:21;15.30;99.90
19538;DHT22;9914;51.008;4.300;2023-08-06T13:25:47;15.30;99.90
19538;DHT22;9914;51.008;4.300;2023-08-06T13:28:13;15.20;99.90
19538;DHT22;9914;51.008;4.300;2023-08-06T13:30:41;15.20;99.90
19538;DHT22;9914;51.008;4.300;2023-08-06T13:33:10;15.00;99.90
19538;DHT22;9914;51.008;4.300;2023-08-06T13:35:37;14.90;99.90
19538;DHT22;9914;51.008;4.300;2023-08-06T13:38:03;14.80;99.90
19538;DHT22;9914;51.008;4.300;2023-08-06T13:40:30;14.80;99.90
19538;DHT22;9914;51.008;4.300;2023-08-06T13:42:56;14.90;99.90
19538;DHT22;9914;51.008;4.300;2023-08-06T13:45:22;14.80;99.90
19538;DHT22;9914;51.008;4.300;2023-08-06T13:47:48;14.80;99.90
19538;DHT22;9914;51.008;4.300;2023-08-06T13:50:13;14.70;99.90
19538;DHT22;9914;51.008;4.300;2023-08-06T13:52:39;14.60;99.90
19538;DHT22;9914;51.008;4.300;2023-08-06T13:55:05;14.70;99.90
19538;DHT22;9914;51.008;4.300;2023-08-06T13:57:32;14.90;99.90
19538;DHT22;9914;51.008;4.300;2023-08-06T13:59:57;14.90;99.90
19538;DHT22;9914;51.008;4.300;2023-08-06T14:02:23;14.80;99.90
19538;DHT22;9914;51.008;4.300;2023-08-06T14:04:49;14.90;99.90
19538;DHT22;9914;51.008;4.300;2023-08-06T14:07:14;15.00;99.90
19538;DHT22;9914;51.008;4.300;2023-08-06T14:09:40;15.00;99.90
19538;DHT22;9914;51.008;4.300;2023-08-06T14:12:07;14.90;99.90
19538;DHT22;9914;51.008;4.300;2023-08-06T14:14:33;14.90;99.90
19538;DHT22;9914;51.008;4.300;2023-08-06T14:16:59;14.90;99.90
19538;DHT22;9914;51.008;4.300;2023-08-06T14:19:25;15.00;99.90
19538;DHT22;9914;51.008;4.300;2023-08-06T14:21:51;14.90;99.90
19538;DHT22;9914;51.008;4.300;2023-08-06T14:24:16;14.80;99.90
19538;DHT22;9914;51.008;4.300;2023-08-06T14:26:42;15.00;99.90
19538;DHT22;9914;51.008;4.300;2023-08-06T14:29:08;15.20;99.90
19538;DHT22;9914;51.008;4.300;2023-08-06T14:31:34;15.10;99.90
19538;DHT22;9914;51.008;4.300;2023-08-06T14:33:59;15.10;99.90
19538;DHT22;9914;51.008;4.300;2023-08-06T14:36:26;15.20;99.90
19538;DHT22;9914;51.008;4.300;2023-08-06T14:38:51;15.30;99.90
19538;DHT22;9914;51.008;4.300;2023-08-06T14:41:17;15.30;99.90
19538;DHT22;9914;51.008;4.300;2023-08-06T14:43:43;15.40;99.90
19538;DHT22;9914;51.008;4.300;2023-08-06T14:46:08;15.30;99.90
19538;DHT22;9914;51.008;4.300;2023-08-06T14:48:34;15.30;99.90
19538;DHT22;9914;51.008;4.300;2023-08-06T14:50:59;15.30;99.90
19538;DHT22;9914;51.008;4.300;2023-08-06T14:53:26;15.20;99.90
19538;DHT22;9914;51.008;4.300;2023-08-06T14:55:52;15.10;99.90
19538;DHT22;9914;51.008;4.300;2023-08-06T14:58:17;15.00;99.90
19538;DHT22;9914;51.008;4.300;2023-08-06T15:00:44;15.00;99.90
19538;DHT22;9914;51.008;4.300;2023-08-06T15:03:10;14.90;99.90
19538;DHT22;9914;51.008;4.300;2023-08-06T15:05:36;14.80;99.90
19538;DHT22;9914;51.008;4.300;2023-08-06T15:08:02;15.00;99.90
19538;DHT22;9914;51.008;4.300;2023-08-06T15:10:27;15.10;99.90
19538;DHT22;9914;51.008;4.300;2023-08-06T15:12:53;15.00;99.90
19538;DHT22;9914;51.008;4.300;2023-08-06T15:15:19;15.00;99.90
19538;DHT22;9914;51.008;4.300;2023-08-06T15:17:45;15.00;99.90
19538;DHT22;9914;51.008;4.300;2023-08-06T15:20:11;15.10;99.90
19538;DHT22;9914;51.008;4.300;2023-08-06T15:22:37;15.20;99.90
19538;DHT22;9914;51.008;4.300;2023-08-06T15:25:03;15.40;99.90
19538;DHT22;9914;51.008;4.300;2023-08-06T15:27:29;15.40;99.90
19538;DHT22;9914;51.008;4.300;2023-08-06T15:29:55;15.60;99.90
19538;DHT22;9914;51.008;4.300;2023-08-06T15:32:21;15.70;99.90
19538;DHT22;9914;51.008;4.300;2023-08-06T15:34:48;15.80;99.90
19538;DHT22;9914;51.008;4.300;2023-08-06T15:37:14;15.80;99.90
19538;DHT22;9914;51.008;4.300;2023-08-06T15:39:39;16.00;99.90
19538;DHT22;9914;51.008;4.300;2023-08-06T15:42:06;16.00;99.90
19538;DHT22;9914;51.008;4.300;2023-08-06T15:44:31;16.20;99.90
19538;DHT22;9914;51.008;4.300;2023-08-06T15:46:57;16.40;99.90
19538;DHT22;9914;51.008;4.300;2023-08-06T15:49:23;16.40;99.90
19538;DHT22;9914;51.008;4.300;2023-08-06T15:51:49;16.60;99.90
19538;DHT22;9914;51.008;4.300;2023-08-06T15:54:15;16.70;99.90